This is the latest recevied weather packets stored in our database for station/object K2RMB. If no packets are shown the sender has not sent any weather packets the latest 10 day(s).
| Time | Temp. | Humidity | Pressure | Rain* | Wind** | Luminosity | Snow |
|---|---|---|---|---|---|---|---|
| 1777323267 | 21.67° C | 30% | 1023.4 hPa | 0 mm | - | 121 W/m² | - |
| 1777322965 | 21.67° C | 29% | 1023.4 hPa | 0 mm | - | 121 W/m² | - |
| 1777322663 | 21.67° C | 28% | 1023.4 hPa | 0 mm | - | 181 W/m² | - |
| 1777322361 | 21.67° C | 26% | 1023.4 hPa | 0 mm | - | 145 W/m² | - |
| 1777322058 | 21.67° C | 27% | 1023.4 hPa | 0 mm | - | 521 W/m² | - |
| 1777321754 | 22.22° C | 25% | 1023.4 hPa | 0 mm | - | 539 W/m² | - |
| 1777321451 | 21.67° C | 28% | 1023 hPa | 0 mm | - | 473 W/m² | - |
| 1777321148 | 21.67° C | 28% | 1023 hPa | 0 mm | - | 192 W/m² | - |
| 1777320846 | 21.67° C | 26% | 1023.4 hPa | 0 mm | - | 212 W/m² | - |
| 1777320542 | 21.67° C | 27% | 1023.4 hPa | 0 mm | - | 232 W/m² | - |
| 1777320240 | 21.11° C | 28% | 1023.4 hPa | 0 mm | - | 211 W/m² | - |
| 1777319936 | 22.22° C | 26% | 1023.4 hPa | 0 mm | - | 225 W/m² | - |
| 1777319634 | 21.67° C | 27% | 1023.4 hPa | 0 mm | - | 645 W/m² | - |
| 1777319330 | 22.78° C | 25% | 1023.4 hPa | 0 mm | - | 202 W/m² | - |
| 1777319028 | 22.78° C | 25% | 1023.4 hPa | 0 mm | - | 210 W/m² | - |
| 1777318724 | 21.67° C | 28% | 1023.4 hPa | 0 mm | - | 734 W/m² | - |
| 1777318420 | 20.56° C | 28% | 1023.4 hPa | 0 mm | - | 299 W/m² | - |
| 1777318118 | 20.56° C | 33% | 1023 hPa | 0 mm | - | 166 W/m² | - |
| 1777317815 | 20.56° C | 28% | 1023.4 hPa | 0 mm | - | 739 W/m² | - |
| 1777317512 | 21.67° C | 26% | 1023.4 hPa | 0 mm | - | 181 W/m² | - |
| 1777317208 | 22.78° C | 24% | 1023.7 hPa | 0 mm | - | 734 W/m² | - |
| 1777316904 | 22.22° C | 28% | 1023.4 hPa | 0 mm | - | 780 W/m² | - |
| 1777316601 | 21.67° C | 29% | 1023.7 hPa | 0 mm | - | 787 W/m² | - |
| 1777316298 | 21.67° C | 26% | 1023.4 hPa | 0 mm | - | 197 W/m² | - |
| 1777315995 | 21.11° C | 29% | 1023.7 hPa | 0 mm | - | 818 W/m² | - |
* Rain latest hour (hover to see other rain measurements)
** Current wind speed in m/s (hover to see current wind gust speed)